| time (UTC) | temp F | wind direction | speed MPH | gust MPH | rain 1hr in | rain 24hr in | rain mn in | humidity % | barometer mb |
| 20260507114553 | 44 | 183 | 0.0 | 2.0 | 0.00 | 0.18 | 0.00 | 80 | 1011.1 |
| 20260507113051 | 40 | 226 | 0.0 | 0.0 | 0.00 | 0.18 | 0.00 | 85 | 1011.1 |
| 20260507111550 | 37 | 226 | 0.0 | 1.0 | 0.00 | 0.18 | 0.00 | 85 | 1011.1 |
| 20260507110113 | 35 | 227 | 0.0 | 0.0 | 0.00 | 0.18 | 0.00 | 84 | 1010.8 |
| 20260507104548 | 35 | 227 | 0.0 | 0.0 | 0.00 | 0.20 | 0.00 | 83 | 1010.8 |
| 20260507103046 | 34 | 227 | 0.0 | 0.0 | 0.00 | 0.20 | 0.00 | 82 | 1010.7 |
| 20260507101546 | 35 | 226 | 0.0 | 0.0 | 0.00 | 0.20 | 0.00 | 81 | 1010.7 |
| 20260507100046 | 35 | 227 | 0.0 | 0.0 | 0.00 | 0.20 | 0.00 | 80 | 1010.6 |
| 20260507094540 | 36 | 227 | 0.0 | 1.0 | 0.00 | 0.21 | 0.00 | 79 | 1010.6 |
| 20260507093043 | 37 | 226 | 0.0 | 0.0 | 0.00 | 0.21 | 0.00 | 77 | 1010.4 |
| 20260507091534 | 38 | 227 | 0.0 | 0.0 | 0.00 | 0.21 | 0.00 | 75 | 1010.5 |
| 20260507090030 | 39 | 226 | 0.0 | 0.0 | 0.00 | 0.21 | 0.00 | 72 | 1010.4 |
| 20260507084526 | 40 | 227 | 0.0 | 0.0 | 0.00 | 0.21 | 0.00 | 69 | 1010.2 |
| 20260507083022 | 42 | 226 | 0.0 | 1.0 | 0.00 | 0.21 | 0.00 | 67 | 1010.3 |
| 20260507081518 | 44 | 227 | 0.0 | 0.0 | 0.00 | 0.21 | 0.00 | 62 | 1010.4 |
| 20260507080012 | 45 | 224 | 0.0 | 1.0 | 0.00 | 0.21 | 0.00 | 61 | 1010.3 |
| 20260507074510 | 46 | 224 | 0.0 | 2.0 | 0.00 | 0.21 | 0.00 | 60 | 1010.4 |
| 20260507073008 | 47 | 224 | 0.0 | 2.0 | 0.00 | 0.21 | 0.00 | 59 | 1010.4 |
| 20260507071519 | 47 | 218 | 0.0 | 1.0 | 0.00 | 0.21 | 0.00 | 56 | 1010.2 |
| 20260507070010 | 47 | 218 | 0.0 | 3.0 | 0.00 | 0.21 | 0.00 | 56 | 1010.2 |
| 20260507064504 | 47 | 236 | 0.0 | 4.0 | 0.00 | 0.21 | 0.00 | 57 | 1010.2 |
| 20260507063004 | 47 | 233 | 0.0 | 2.0 | 0.00 | 0.21 | 0.00 | 57 | 1010.3 |
| 20260507061601 | 47 | 236 | 0.0 | 2.0 | 0.00 | 0.21 | 0.00 | 56 | 1010.4 |
| 20260507060059 | 48 | 218 | 0.0 | 2.0 | 0.00 | 0.21 | 0.00 | 55 | 1010.5 |
| 20260507054602 | 48 | 247 | 2.0 | 6.0 | 0.00 | 0.21 | 0.00 | 54 | 1010.6 |
| 20260507053122 | 48 | 257 | 1.0 | 2.0 | 0.00 | 0.21 | 0.00 | 56 | 1010.4 |
| 20260507051601 | 48 | 251 | 1.0 | 5.0 | 0.00 | 0.21 | 0.00 | 55 | 1010.6 |
| 20260507050050 | 48 | 263 | 0.0 | 3.0 | 0.00 | 0.21 | 0.00 | 59 | 1010.5 |
| 20260507044549 | 49 | 195 | 0.0 | 3.0 | 0.00 | 0.21 | 0.00 | 60 | 1010.6 |
| 20260507043045 | 49 | 233 | 0.0 | 1.0 | 0.00 | 0.21 | 0.00 | 57 | 1010.5 |
| 20260507041546 | 49 | 234 | 0.0 | 1.0 | 0.00 | 0.21 | 0.00 | 56 | 1010.1 |
| 20260507040039 | 49 | 234 | 0.0 | 1.0 | 0.00 | 0.21 | 0.00 | 56 | 1010.2 |
| 20260507034539 | 50 | 234 | 0.0 | 1.0 | 0.00 | 0.21 | 0.21 | 55 | 1010.3 |
| 20260507033044 | 50 | 51 | 0.0 | 2.0 | 0.00 | 0.21 | 0.21 | 57 | 1010.2 |
| 20260507031534 | 50 | 235 | 0.0 | 9.0 | 0.00 | 0.21 | 0.21 | 54 | 1010.0 |
| 20260507030033 | 50 | 325 | 1.0 | 6.0 | 0.00 | 0.21 | 0.21 | 54 | 1009.8 |
| 20260507024533 | 50 | 255 | 1.0 | 6.0 | 0.00 | 0.21 | 0.21 | 61 | 1009.7 |
| 20260507023033 | 50 | 241 | 0.0 | 5.0 | 0.00 | 0.21 | 0.21 | 74 | 1009.6 |
| 20260507021525 | 50 | 262 | 0.0 | 3.0 | 0.00 | 0.21 | 0.21 | 79 | 1009.3 |
| 20260507020023 | 50 | 234 | 0.0 | 2.0 | 0.00 | 0.21 | 0.21 | 77 | 1009.1 |
| 20260507014519 | 51 | 211 | 0.0 | 0.0 | 0.00 | 0.21 | 0.21 | 74 | 1009.6 |
| 20260507013017 | 52 | 211 | 0.0 | 1.0 | 0.00 | 0.21 | 0.21 | 73 | 1009.6 |
| 20260507011515 | 53 | 238 | 0.0 | 2.0 | 0.00 | 0.21 | 0.21 | 72 | 1009.6 |
| 20260507010022 | 53 | 209 | 0.0 | 2.0 | 0.00 | 0.21 | 0.21 | 72 | 1009.4 |
| 20260507004512 | 53 | 234 | 1.0 | 4.0 | 0.00 | 0.21 | 0.21 | 72 | 1009.4 |
| 20260507003010 | 53 | 262 | 0.0 | 1.0 | 0.00 | 0.21 | 0.21 | 72 | 1009.2 |
| 20260507001506 | 53 | 249 | 0.0 | 4.0 | 0.00 | 0.21 | 0.21 | 71 | 1008.7 |
| 20260507000011 | 53 | 248 | 3.0 | 6.0 | 0.00 | 0.21 | 0.21 | 72 | 1008.5 |
| 20260506234504 | 53 | 249 | 3.0 | 8.0 | 0.00 | 0.21 | 0.21 | 73 | 1008.3 |
| 20260506233002 | 54 | 311 | 1.0 | 5.0 | 0.00 | 0.21 | 0.21 | 74 | 1007.9 |
| 20260506231603 | 54 | 247 | 1.0 | 9.0 | 0.00 | 0.21 | 0.21 | 73 | 1007.8 |
| 20260506230107 | 54 | 241 | 3.0 | 8.0 | 0.00 | 0.21 | 0.21 | 73 | 1007.8 |
| 20260506224556 | 54 | 271 | 3.0 | 8.0 | 0.00 | 0.21 | 0.21 | 73 | 1008.0 |
| 20260506223054 | 55 | 337 | 4.0 | 8.0 | 0.00 | 0.21 | 0.21 | 73 | 1007.6 |
| 20260506221551 | 56 | 240 | 4.0 | 8.0 | 0.00 | 0.21 | 0.21 | 73 | 1007.0 |
| 20260506220051 | 56 | 257 | 3.0 | 7.0 | 0.00 | 0.21 | 0.21 | 73 | 1007.0 |
| 20260506214600 | 57 | 245 | 3.0 | 11.0 | 0.00 | 0.21 | 0.21 | 72 | 1006.9 |
| 20260506213046 | 58 | 278 | 4.0 | 15.0 | 0.00 | 0.21 | 0.21 | 71 | 1006.5 |
| 20260506211543 | 58 | 231 | 3.0 | 8.0 | 0.00 | 0.21 | 0.21 | 71 | 1006.1 |
| 20260506210041 | 59 | 244 | 4.0 | 9.0 | 0.00 | 0.21 | 0.21 | 72 | 1005.7 |
| 20260506204544 | 60 | 242 | 3.0 | 8.0 | 0.00 | 0.22 | 0.21 | 73 | 1005.6 |
| 20260506203039 | 60 | 232 | 4.0 | 8.0 | 0.00 | 0.22 | 0.21 | 72 | 1005.4 |
| 20260506201538 | 61 | 260 | 4.0 | 9.0 | 0.00 | 0.22 | 0.21 | 72 | 1005.2 |
| 20260506200037 | 61 | 240 | 5.0 | 10.0 | 0.00 | 0.22 | 0.21 | 73 | 1004.9 |
| 20260506194539 | 61 | 244 | 3.0 | 11.0 | 0.00 | 0.22 | 0.21 | 75 | 1004.8 |
| 20260506193038 | 61 | 229 | 3.0 | 8.0 | 0.00 | 0.22 | 0.21 | 76 | 1004.7 |
| 20260506191535 | 62 | 225 | 7.0 | 14.0 | 0.00 | 0.22 | 0.21 | 76 | 1004.4 |
| 20260506190037 | 63 | 246 | 6.0 | 13.0 | 0.00 | 0.22 | 0.21 | 76 | 1004.3 |
| 20260506184534 | 62 | 197 | 5.0 | 10.0 | 0.00 | 0.22 | 0.21 | 80 | 1004.2 |
| 20260506183034 | 61 | 187 | 3.0 | 7.0 | 0.01 | 0.22 | 0.21 | 84 | 1004.4 |
| 20260506181532 | 60 | 185 | 2.0 | 4.0 | 0.01 | 0.22 | 0.21 | 85 | 1004.3 |
| 20260506180034 | 59 | 176 | 3.0 | 6.0 | 0.02 | 0.22 | 0.21 | 85 | 1004.2 |
| 20260506174531 | 59 | 230 | 3.0 | 7.0 | 0.02 | 0.22 | 0.21 | 86 | 1004.3 |
| 20260506173031 | 60 | 203 | 1.0 | 4.0 | 0.01 | 0.21 | 0.20 | 87 | 1004.2 |
| 20260506171530 | 60 | 207 | 1.0 | 2.0 | 0.01 | 0.21 | 0.20 | 87 | 1004.1 |
| 20260506170030 | 60 | 172 | 1.0 | 4.0 | 0.00 | 0.20 | 0.19 | 86 | 1003.9 |
| 20260506164529 | 60 | 214 | 1.0 | 6.0 | 0.00 | 0.20 | 0.19 | 86 | 1003.9 |
| 20260506163029 | 60 | 181 | 0.0 | 4.0 | 0.00 | 0.20 | 0.19 | 86 | 1003.9 |
| 20260506161534 | 60 | 183 | 1.0 | 5.0 | 0.00 | 0.20 | 0.19 | 86 | 1003.9 |
| 20260506160030 | 60 | 174 | 2.0 | 6.0 | 0.00 | 0.20 | 0.19 | 87 | 1003.9 |
| 20260506154527 | 59 | 160 | 1.0 | 4.0 | 0.00 | 0.20 | 0.19 | 86 | 1003.9 |
| 20260506153025 | 59 | 192 | 0.0 | 2.0 | 0.00 | 0.20 | 0.19 | 86 | 1003.9 |
| 20260506151524 | 58 | 194 | 0.0 | 2.0 | 0.01 | 0.20 | 0.19 | 86 | 1003.8 |
| 20260506150023 | 58 | 205 | 0.0 | 1.0 | 0.01 | 0.20 | 0.19 | 86 | 1003.8 |
| 20260506144523 | 58 | 195 | 0.0 | 3.0 | 0.01 | 0.20 | 0.19 | 86 | 1003.5 |
| 20260506143026 | 58 | 197 | 0.0 | 2.0 | 0.02 | 0.20 | 0.19 | 86 | 1003.8 |
| 20260506141530 | 58 | 197 | 0.0 | 1.0 | 0.03 | 0.19 | 0.18 | 86 | 1003.7 |
| 20260506140022 | 58 | 185 | 0.0 | 2.0 | 0.03 | 0.19 | 0.18 | 86 | 1003.3 |
| 20260506134518 | 58 | 193 | 0.0 | 3.0 | 0.03 | 0.18 | 0.17 | 86 | 1003.5 |
| 20260506133018 | 58 | 179 | 0.0 | 0.0 | 0.04 | 0.18 | 0.17 | 86 | 1003.6 |
| 20260506131523 | 58 | 160 | 0.0 | 0.0 | 0.03 | 0.16 | 0.15 | 86 | 1003.8 |
| 20260506130021 | 58 | 160 | 0.0 | 0.0 | 0.05 | 0.16 | 0.15 | 86 | 1003.8 |
| 20260506124515 | 57 | 160 | 0.0 | 0.0 | 0.06 | 0.15 | 0.14 | 86 | 1003.7 |
| 20260506123016 | 57 | 160 | 0.0 | 0.0 | 0.08 | 0.14 | 0.13 | 87 | 1003.8 |
| 20260506121514 | 57 | 160 | 0.0 | 0.0 | 0.08 | 0.12 | 0.11 | 86 | 1003.9 |
| 20260506120022 | 57 | 160 | 0.0 | 0.0 | 0.07 | 0.11 | 0.10 | 86 | 1004.1 |